Time;durP1;ratioP1;P1;durP2;ratioP2;P2;SDS_P1;SDS_P2;PMS_P1;PMS_P2;Temp;Humidity;BMP_temperature;BMP_pressure;BME280_temperature;BME280_humidity;BME280_pressure;Samples;Min_cycle;Max_cycle;Signal;HPM_P1;HPM_P2
2024/01/21 00:02:14;;;;;;;8.38;3.20;;;-10.00;99.90;;;;;;5018242;28;20029;-67
2024/01/21 00:04:40;;;;;;;7.15;3.17;;;-10.00;99.90;;;;;;5033872;28;20120;-67
2024/01/21 00:07:07;;;;;;;7.30;3.28;;;-9.90;99.90;;;;;;5033040;28;20029;-66
2024/01/21 00:09:33;;;;;;;8.88;3.33;;;-9.80;99.90;;;;;;5034275;28;20037;-66
2024/01/21 00:11:58;;;;;;;9.05;3.85;;;-9.70;99.90;;;;;;5032272;28;20547;-66
2024/01/21 00:14:24;;;;;;;9.15;3.92;;;-9.60;99.90;;;;;;5034317;28;20032;-66
2024/01/21 00:16:50;;;;;;;10.52;3.63;;;-9.60;99.90;;;;;;5034193;28;20017;-66
2024/01/21 00:19:16;;;;;;;11.43;3.60;;;-9.60;99.90;;;;;;5034034;28;20075;-66
2024/01/21 00:21:42;;;;;;;7.28;3.08;;;-9.70;99.90;;;;;;5034393;28;20038;-66
2024/01/21 00:24:07;;;;;;;9.70;2.90;;;-9.70;99.90;;;;;;5033775;28;20038;-66
2024/01/21 00:26:33;;;;;;;9.80;3.55;;;-9.70;99.90;;;;;;5033180;28;20025;-68
2024/01/21 00:29:00;;;;;;;8.73;4.15;;;-9.70;99.90;;;;;;5031505;28;20030;-66
2024/01/21 00:31:27;;;;;;;6.28;2.95;;;-9.70;99.90;;;;;;5033382;28;20022;-67
2024/01/21 00:33:53;;;;;;;8.27;3.78;;;-9.70;99.90;;;;;;5030527;28;20034;-66
2024/01/21 00:36:19;;;;;;;10.73;3.88;;;-9.70;99.90;;;;;;5033624;28;20025;-66
2024/01/21 00:38:44;;;;;;;8.85;3.42;;;-9.70;99.90;;;;;;5033590;28;20393;-66
2024/01/21 00:41:17;;;;;;;9.15;3.08;;;-9.70;99.90;;;;;;5033976;28;20025;-66
2024/01/21 00:43:42;;;;;;;8.00;3.25;;;-9.80;99.90;;;;;;5033725;28;20500;-66
2024/01/21 00:46:08;;;;;;;8.35;3.33;;;-9.90;99.90;;;;;;5033969;28;20037;-66
2024/01/21 00:48:34;;;;;;;7.72;3.92;;;-9.90;99.90;;;;;;5033566;28;20032;-66
2024/01/21 00:51:00;;;;;;;6.40;3.03;;;-10.00;99.90;;;;;;5036956;28;20030;-66
2024/01/21 00:53:26;;;;;;;9.20;3.20;;;-10.00;99.90;;;;;;5032871;28;20512;-66
2024/01/21 00:55:52;;;;;;;9.68;2.70;;;-10.00;99.90;;;;;;5033643;28;20034;-66
2024/01/21 00:58:18;;;;;;;5.15;2.70;;;-9.90;99.90;;;;;;5033317;28;20549;-66
2024/01/21 01:00:43;;;;;;;5.93;2.85;;;-9.80;99.90;;;;;;5033403;28;20100;-66
2024/01/21 01:03:09;;;;;;;7.07;2.50;;;-9.80;99.90;;;;;;5033443;28;20095;-66
2024/01/21 01:05:35;;;;;;;6.70;2.28;;;-9.80;99.90;;;;;;5032064;28;20040;-66
2024/01/21 01:08:01;;;;;;;6.60;1.85;;;-9.70;99.90;;;;;;5033491;28;20458;-66
2024/01/21 01:10:26;;;;;;;10.10;2.50;;;-9.80;99.90;;;;;;5032068;28;20508;-66
2024/01/21 01:12:52;;;;;;;8.40;3.40;;;-9.90;99.90;;;;;;5032606;28;20040;-66
2024/01/21 01:15:18;;;;;;;6.25;2.83;;;-10.00;99.90;;;;;;5031868;28;20064;-66
2024/01/21 01:17:44;;;;;;;7.65;2.78;;;-9.90;99.90;;;;;;5033008;28;20436;-66
2024/01/21 01:20:10;;;;;;;8.38;3.00;;;-9.90;99.90;;;;;;5031936;28;20083;-66
2024/01/21 01:22:36;;;;;;;11.32;3.50;;;-9.80;99.90;;;;;;5032361;28;20026;-66
2024/01/21 01:25:05;;;;;;;6.57;2.90;;;-9.80;99.90;;;;;;5037570;28;20038;-66
2024/01/21 01:27:31;;;;;;;4.78;2.30;;;-9.90;99.90;;;;;;5037375;28;20508;-66
2024/01/21 01:29:56;;;;;;;7.40;2.67;;;-10.00;99.90;;;;;;5036095;28;20067;-66
2024/01/21 01:32:22;;;;;;;6.90;2.67;;;-10.20;99.90;;;;;;5035799;28;20061;-66
2024/01/21 01:34:49;;;;;;;8.45;3.13;;;-10.30;99.90;;;;;;5037301;28;20040;-66
2024/01/21 01:37:15;;;;;;;7.75;3.13;;;-10.30;99.90;;;;;;5037458;28;20499;-66
2024/01/21 01:39:41;;;;;;;7.88;2.92;;;-10.20;99.90;;;;;;5037262;28;20473;-66
2024/01/21 01:42:07;;;;;;;5.82;3.15;;;-10.20;99.90;;;;;;5036948;28;20033;-66
2024/01/21 01:44:32;;;;;;;7.50;2.42;;;-10.30;99.90;;;;;;5036966;28;20037;-66
2024/01/21 01:46:59;;;;;;;9.07;3.45;;;-10.30;99.90;;;;;;5035335;28;20033;-66
2024/01/21 01:49:26;;;;;;;14.80;3.47;;;-10.40;99.90;;;;;;5036862;28;20505;-66
2024/01/21 01:51:54;;;;;;;6.97;2.67;;;-10.50;99.90;;;;;;5037128;28;20508;-66
2024/01/21 01:54:22;;;;;;;8.02;2.97;;;-10.50;99.90;;;;;;5036645;28;20032;-66
2024/01/21 01:56:49;;;;;;;8.43;2.72;;;-10.50;99.90;;;;;;5036531;28;20482;-66
2024/01/21 01:59:18;;;;;;;7.45;3.15;;;-10.50;99.90;;;;;;5036976;28;20029;-66
2024/01/21 02:01:44;;;;;;;8.75;3.00;;;-10.50;99.90;;;;;;5036844;28;20025;-66
2024/01/21 02:04:11;;;;;;;7.00;2.90;;;-10.50;99.90;;;;;;5035274;28;20029;-66
2024/01/21 02:06:38;;;;;;;6.15;2.88;;;-10.60;99.90;;;;;;5035288;28;20386;-66
2024/01/21 02:09:04;;;;;;;6.60;2.78;;;-10.70;99.90;;;;;;5035340;28;20116;-66
2024/01/21 02:11:30;;;;;;;7.35;2.75;;;-10.80;99.90;;;;;;5018983;28;20390;-66
2024/01/21 02:13:55;;;;;;;8.25;2.70;;;-10.80;99.90;;;;;;5036525;28;20030;-66
2024/01/21 02:16:21;;;;;;;10.15;3.15;;;-10.80;99.90;;;;;;5036391;28;20439;-66
2024/01/21 02:18:49;;;;;;;6.20;2.70;;;-10.80;99.90;;;;;;5036563;28;20490;-66
2024/01/21 02:21:15;;;;;;;6.90;2.70;;;-10.70;99.90;;;;;;5035158;28;20493;-66
2024/01/21 02:23:40;;;;;;;6.40;2.55;;;-10.60;99.90;;;;;;5036277;28;20036;-66
2024/01/21 02:26:06;;;;;;;5.13;2.35;;;-10.70;99.90;;;;;;5034947;28;20112;-66
2024/01/21 02:28:32;;;;;;;6.00;2.30;;;-10.80;99.90;;;;;;5036431;28;20042;-66
2024/01/21 02:30:57;;;;;;;6.68;2.35;;;-10.80;99.90;;;;;;5036413;28;20037;-66
2024/01/21 02:33:23;;;;;;;4.47;2.17;;;-10.80;99.90;;;;;;5036875;28;20030;-66
2024/01/21 02:35:49;;;;;;;6.22;1.90;;;-10.80;99.90;;;;;;5033914;28;20056;-66
2024/01/21 02:38:14;;;;;;;5.28;2.22;;;-10.70;99.90;;;;;;5034273;28;20026;-66
2024/01/21 02:40:40;;;;;;;4.20;1.92;;;-10.70;99.90;;;;;;5035801;28;20033;-66
2024/01/21 02:43:07;;;;;;;3.92;1.73;;;-10.60;99.90;;;;;;5035921;28;20026;-66
2024/01/21 02:45:33;;;;;;;4.72;2.40;;;-10.50;99.90;;;;;;5035937;28;20486;-66
2024/01/21 02:47:59;;;;;;;5.03;2.05;;;-10.50;99.90;;;;;;5036024;28;20390;-67
2024/01/21 02:50:24;;;;;;;6.70;2.13;;;-10.50;99.90;;;;;;5035735;28;20030;-66
2024/01/21 02:52:50;;;;;;;5.50;2.22;;;-10.50;99.90;;;;;;5034176;28;20034;-67
2024/01/21 02:55:16;;;;;;;5.80;2.45;;;-10.50;99.90;;;;;;5034160;28;20033;-66
2024/01/21 02:57:41;;;;;;;6.45;2.70;;;-10.60;99.90;;;;;;5035182;28;20024;-66
2024/01/21 03:00:08;;;;;;;6.28;2.90;;;-10.70;99.90;;;;;;5035806;28;20037;-66
2024/01/21 03:02:33;;;;;;;4.50;2.08;;;-10.60;99.90;;;;;;5035876;28;20382;-66
2024/01/21 03:04:59;;;;;;;4.82;2.00;;;-10.60;99.90;;;;;;5035315;28;20045;-66
2024/01/21 03:07:25;;;;;;;5.65;2.00;;;-10.60;99.90;;;;;;5035702;28;20040;-66
2024/01/21 03:09:51;;;;;;;4.95;2.42;;;-10.60;99.90;;;;;;5035266;28;20033;-66
2024/01/21 03:12:17;;;;;;;3.90;1.65;;;-10.50;99.90;;;;;;5035681;28;20044;-66
2024/01/21 03:14:42;;;;;;;3.72;1.80;;;-10.50;99.90;;;;;;5035219;28;20025;-66
2024/01/21 03:17:09;;;;;;;6.95;2.35;;;-10.50;99.90;;;;;;5035456;28;20029;-66
2024/01/21 03:19:35;;;;;;;5.82;2.25;;;-10.40;99.90;;;;;;5035850;28;20429;-66
2024/01/21 03:22:00;;;;;;;6.25;2.25;;;-10.50;99.90;;;;;;5034327;28;20029;-66
2024/01/21 03:24:26;;;;;;;5.80;2.45;;;-10.50;99.90;;;;;;5035166;28;20027;-66
2024/01/21 03:26:52;;;;;;;5.22;1.80;;;-10.50;99.90;;;;;;5035138;28;20624;-66
2024/01/21 03:29:18;;;;;;;5.50;2.10;;;-10.50;99.90;;;;;;5033829;28;20038;-66
2024/01/21 03:31:43;;;;;;;7.18;2.40;;;-10.50;99.90;;;;;;5035127;28;20032;-66
2024/01/21 03:34:09;;;;;;;4.80;2.25;;;-10.50;99.90;;;;;;5035166;28;20033;-66
2024/01/21 03:36:35;;;;;;;6.18;2.60;;;-10.60;99.90;;;;;;5035132;28;20072;-66
2024/01/21 03:39:01;;;;;;;5.75;2.25;;;-10.70;99.90;;;;;;5034897;28;20079;-66
2024/01/21 03:41:26;;;;;;;6.32;2.35;;;-10.70;99.90;;;;;;5035360;28;20474;-66
2024/01/21 03:43:52;;;;;;;3.63;1.95;;;-10.70;99.90;;;;;;5033027;28;20060;-66
2024/01/21 03:46:18;;;;;;;5.55;2.15;;;-10.80;99.90;;;;;;5032867;28;20435;-66
2024/01/21 03:48:44;;;;;;;4.30;1.63;;;-10.80;99.90;;;;;;5032946;28;20090;-66
2024/01/21 03:51:13;;;;;;;5.88;2.00;;;-10.80;99.90;;;;;;5034679;28;20018;-66
2024/01/21 03:53:40;;;;;;;6.55;2.10;;;-10.90;99.90;;;;;;5033358;28;20505;-66
2024/01/21 03:56:06;;;;;;;4.63;1.77;;;-10.80;99.90;;;;;;5034419;28;20029;-66
2024/01/21 03:58:32;;;;;;;5.18;1.92;;;-10.80;99.90;;;;;;5034492;28;20109;-66
2024/01/21 04:00:58;;;;;;;5.40;1.77;;;-10.80;99.90;;;;;;5032752;28;20060;-66
2024/01/21 04:03:25;;;;;;;4.45;1.75;;;-10.80;99.90;;;;;;5034216;28;20040;-66
2024/01/21 04:05:50;;;;;;;7.32;1.77;;;-10.80;99.90;;;;;;5034203;28;20036;-66
2024/01/21 04:08:17;;;;;;;7.95;1.92;;;-10.80;99.90;;;;;;5033187;28;20029;-65
2024/01/21 04:10:43;;;;;;;5.45;2.17;;;-10.70;99.90;;;;;;5034874;28;20469;-66
2024/01/21 04:13:09;;;;;;;6.57;2.05;;;-10.70;99.90;;;;;;5034205;28;20040;-66
2024/01/21 04:15:34;;;;;;;4.07;1.75;;;-10.70;99.90;;;;;;5033790;28;20061;-66
2024/01/21 04:18:01;;;;;;;5.13;1.92;;;-10.80;99.90;;;;;;5034005;28;20057;-66
2024/01/21 04:20:26;;;;;;;6.13;2.08;;;-10.90;99.90;;;;;;5034132;28;20104;-66
2024/01/21 04:22:52;;;;;;;4.47;2.10;;;-10.90;99.90;;;;;;5033257;28;20445;-65
2024/01/21 04:25:18;;;;;;;4.25;2.10;;;-11.00;99.90;;;;;;5032864;28;20083;-66
2024/01/21 04:27:43;;;;;;;11.20;2.40;;;-11.10;99.90;;;;;;5033973;28;20029;-66
2024/01/21 04:30:09;;;;;;;3.92;1.88;;;-11.20;99.90;;;;;;5033873;28;20108;-66
2024/01/21 04:32:35;;;;;;;5.47;2.05;;;-11.20;99.90;;;;;;5033979;28;20033;-66
2024/01/21 04:35:01;;;;;;;6.20;2.03;;;-11.20;99.90;;;;;;5033955;28;20032;-66
2024/01/21 04:37:26;;;;;;;5.07;2.00;;;-11.10;99.90;;;;;;5032756;28;20074;-65
2024/01/21 04:39:52;;;;;;;4.53;2.00;;;-11.10;99.90;;;;;;5033859;28;20401;-65
2024/01/21 04:42:18;;;;;;;11.15;2.20;;;-11.10;99.90;;;;;;5033998;28;20152;-66
2024/01/21 04:44:43;;;;;;;8.93;2.22;;;-11.10;99.90;;;;;;5033628;28;20084;-66
2024/01/21 04:47:09;;;;;;;5.50;2.38;;;-11.20;99.90;;;;;;5032534;28;20100;-66
2024/01/21 04:49:34;;;;;;;5.13;1.95;;;-11.20;99.90;;;;;;5031885;28;20417;-65
2024/01/21 04:52:01;;;;;;;5.57;2.50;;;-11.30;99.90;;;;;;5033259;28;20492;-66
2024/01/21 04:54:26;;;;;;;5.75;2.00;;;-11.30;99.90;;;;;;5033405;28;20025;-66
2024/01/21 04:56:52;;;;;;;5.95;1.80;;;-11.40;99.90;;;;;;5033537;28;20037;-65
2024/01/21 04:59:18;;;;;;;4.05;1.85;;;-11.40;99.90;;;;;;5033403;28;20060;-66
2024/01/21 05:01:47;;;;;;;3.60;1.85;;;-11.40;99.90;;;;;;5033554;28;20033;-66
2024/01/21 05:04:13;;;;;;;4.88;1.70;;;-11.40;99.90;;;;;;5033404;28;20120;-67
2024/01/21 05:06:38;;;;;;;7.40;2.78;;;-11.50;99.90;;;;;;5032096;28;20129;-66
2024/01/21 05:09:04;;;;;;;9.88;2.97;;;-11.50;99.90;;;;;;5033439;28;20033;-65
2024/01/21 05:11:30;;;;;;;6.15;2.83;;;-11.50;99.90;;;;;;5032258;28;20026;-66
2024/01/21 05:13:56;;;;;;;4.82;2.42;;;-11.60;99.90;;;;;;5032150;28;20025;-66
2024/01/21 05:16:21;;;;;;;5.68;2.30;;;-11.70;99.90;;;;;;5033387;28;20084;-66
2024/01/21 05:18:47;;;;;;;4.78;1.80;;;-11.70;99.90;;;;;;5032007;28;20436;-65
2024/01/21 05:21:20;;;;;;;4.88;2.55;;;-11.60;99.90;;;;;;5031797;28;20444;-66
2024/01/21 05:23:50;;;;;;;4.32;2.08;;;-11.50;99.90;;;;;;5032086;28;20032;-65
2024/01/21 05:26:16;;;;;;;5.47;2.25;;;-11.50;99.90;;;;;;5033538;28;20026;-65
2024/01/21 05:28:42;;;;;;;5.18;2.90;;;-11.40;99.90;;;;;;5033759;28;20037;-65
2024/01/21 05:31:08;;;;;;;6.80;2.22;;;-11.50;99.90;;;;;;5032267;28;20061;-65
2024/01/21 05:33:38;;;;;;;8.70;3.65;;;-11.60;99.90;;;;;;5033204;28;20025;-65
2024/01/21 05:36:04;;;;;;;13.30;6.95;;;-11.70;99.90;;;;;;5033061;28;20028;-65
2024/01/21 05:38:29;;;;;;;14.35;7.38;;;-11.80;99.90;;;;;;5033300;28;20449;-66
2024/01/21 05:40:55;;;;;;;10.38;5.90;;;-11.90;99.90;;;;;;5032913;28;20061;-65
2024/01/21 05:43:21;;;;;;;9.35;4.57;;;-11.80;99.90;;;;;;5033320;28;20493;-65
2024/01/21 05:45:46;;;;;;;6.30;2.95;;;-11.80;99.90;;;;;;5033334;28;20482;-65
2024/01/21 05:48:12;;;;;;;7.53;3.63;;;-11.80;99.90;;;;;;5032253;28;20033;-65
2024/01/21 05:50:38;;;;;;;6.30;2.90;;;-11.80;99.90;;;;;;5033076;28;20559;-65
2024/01/21 05:53:05;;;;;;;10.52;3.65;;;-11.70;99.90;;;;;;5032386;28;20029;-65
2024/01/21 05:55:32;;;;;;;7.78;3.58;;;-11.60;99.90;;;;;;5032219;28;20021;-66
2024/01/21 05:57:58;;;;;;;7.82;2.95;;;-11.50;99.90;;;;;;5033000;28;20107;-65
2024/01/21 06:00:24;;;;;;;5.05;2.40;;;-11.40;99.90;;;;;;5033271;28;20046;-65
2024/01/21 06:02:51;;;;;;;6.95;2.88;;;-11.40;99.90;;;;;;5033175;28;20381;-65
2024/01/21 06:05:17;;;;;;;8.80;3.35;;;-11.40;99.90;;;;;;5032796;28;20038;-65
2024/01/21 06:07:43;;;;;;;7.72;3.00;;;-11.60;99.90;;;;;;5031810;28;20565;-65
2024/01/21 06:10:09;;;;;;;7.35;2.80;;;-11.60;99.90;;;;;;5032863;28;20409;-66
2024/01/21 06:12:35;;;;;;;6.07;3.42;;;-11.60;99.90;;;;;;5034996;28;20524;-66
2024/01/21 06:15:01;;;;;;;5.78;3.08;;;-11.50;99.90;;;;;;5035461;28;20042;-66
2024/01/21 06:17:27;;;;;;;4.45;2.78;;;-11.60;99.90;;;;;;5036811;28;20056;-66
2024/01/21 06:19:53;;;;;;;8.18;3.10;;;-11.60;99.90;;;;;;5035098;28;20044;-66
2024/01/21 06:22:18;;;;;;;5.28;2.53;;;-11.50;99.90;;;;;;5035119;28;20037;-65
2024/01/21 06:24:44;;;;;;;6.28;2.40;;;-11.50;99.90;;;;;;5035398;28;20496;-65
2024/01/21 06:27:10;;;;;;;5.20;2.53;;;-11.60;99.90;;;;;;5036583;28;20025;-66
2024/01/21 06:29:35;;;;;;;4.57;2.30;;;-11.70;99.90;;;;;;5035964;28;20041;-65
2024/01/21 06:32:01;;;;;;;4.88;2.38;;;-11.70;99.90;;;;;;5036604;28;20425;-66
2024/01/21 06:34:26;;;;;;;4.78;2.30;;;-11.70;99.90;;;;;;5035914;28;20090;-66
2024/01/21 06:36:52;;;;;;;5.55;2.70;;;-11.80;99.90;;;;;;5036106;28;20029;-66
2024/01/21 06:39:18;;;;;;;7.03;2.20;;;-11.80;99.90;;;;;;5036040;28;20099;-66
2024/01/21 06:41:43;;;;;;;4.53;2.33;;;-11.70;99.90;;;;;;5002846;28;20485;-65
2024/01/21 06:44:09;;;;;;;6.57;2.58;;;-11.70;99.90;;;;;;5035889;28;20026;-65
2024/01/21 06:46:35;;;;;;;8.60;2.90;;;-11.70;99.90;;;;;;5033893;28;20489;-66
2024/01/21 06:49:00;;;;;;;5.95;3.10;;;-11.60;99.90;;;;;;5034350;28;20125;-66
2024/01/21 06:51:32;;;;;;;7.57;3.75;;;-11.50;99.90;;;;;;5035799;28;20037;-66
2024/01/21 06:54:00;;;;;;;7.82;3.50;;;-11.50;99.90;;;;;;5035673;28;20029;-65
2024/01/21 06:56:26;;;;;;;5.70;2.83;;;-11.40;99.90;;;;;;5034408;28;20454;-66
2024/01/21 06:58:53;;;;;;;7.30;3.00;;;-11.40;99.90;;;;;;5035723;28;20057;-66
2024/01/21 07:01:19;;;;;;;6.13;2.42;;;-11.40;99.90;;;;;;5035436;28;20026;-66
2024/01/21 07:03:45;;;;;;;7.53;3.17;;;-11.30;99.90;;;;;;5035568;28;20505;-67
2024/01/21 07:06:11;;;;;;;6.93;2.72;;;-11.40;99.90;;;;;;5035377;28;20080;-65
2024/01/21 07:08:38;;;;;;;6.20;2.53;;;-11.40;99.90;;;;;;5034187;28;20057;-65
2024/01/21 07:11:09;;;;;;;7.07;3.00;;;-11.40;99.90;;;;;;5035727;28;20114;-65
2024/01/21 07:13:36;;;;;;;5.80;2.70;;;-11.40;99.90;;;;;;5015707;28;20046;-65
2024/01/21 07:16:02;;;;;;;8.80;3.50;;;-11.30;99.90;;;;;;5015367;28;20032;-65
2024/01/21 07:18:28;;;;;;;10.43;4.60;;;-11.30;99.90;;;;;;5026477;28;20056;-65
2024/01/21 07:20:53;;;;;;;8.95;3.55;;;-11.30;99.90;;;;;;5034953;28;20021;-65
2024/01/21 07:23:19;;;;;;;10.07;3.45;;;-11.30;99.90;;;;;;5035596;28;20021;-66
2024/01/21 07:25:47;;;;;;;5.68;2.80;;;-11.30;99.90;;;;;;5035828;28;20485;-66
2024/01/21 07:28:13;;;;;;;9.00;3.30;;;-11.40;99.90;;;;;;5035099;28;20041;-66
2024/01/21 07:30:39;;;;;;;9.52;3.28;;;-11.40;99.90;;;;;;5034256;28;20087;-66
2024/01/21 07:33:04;;;;;;;11.77;5.75;;;-11.40;99.90;;;;;;5034609;28;20548;-66
2024/01/21 07:35:31;;;;;;;12.93;5.72;;;-11.40;99.90;;;;;;5034976;28;20030;-67
2024/01/21 07:37:56;;;;;;;7.82;4.03;;;-11.40;99.90;;;;;;5034954;28;20022;-66
2024/01/21 07:40:22;;;;;;;11.77;5.53;;;-11.30;99.90;;;;;;5034903;28;20386;-66
2024/01/21 07:42:48;;;;;;;9.60;4.80;;;-11.30;99.90;;;;;;5035153;28;20051;-66
2024/01/21 07:45:14;;;;;;;18.13;8.65;;;-11.30;99.90;;;;;;5033372;28;20440;-66
2024/01/21 07:47:40;;;;;;;21.98;10.50;;;-11.30;99.90;;;;;;5034691;28;20057;-66
2024/01/21 07:50:06;;;;;;;17.08;9.27;;;-11.20;99.90;;;;;;5033284;28;20029;-66
2024/01/21 07:52:32;;;;;;;10.20;4.80;;;-11.10;99.90;;;;;;5034125;28;20112;-67
2024/01/21 07:54:57;;;;;;;8.95;4.43;;;-11.10;99.90;;;;;;5034710;28;20104;-66
2024/01/21 07:57:23;;;;;;;8.93;4.30;;;-11.10;99.90;;;;;;5033303;28;20477;-66
2024/01/21 07:59:48;;;;;;;9.05;5.10;;;-11.00;99.90;;;;;;5033340;28;20461;-66
2024/01/21 08:02:14;;;;;;;12.80;4.38;;;-11.00;99.90;;;;;;5016908;28;20413;-66
2024/01/21 08:04:40;;;;;;;8.18;4.90;;;-10.90;99.90;;;;;;5034441;28;20037;-66
2024/01/21 08:07:05;;;;;;;12.57;5.47;;;-10.80;99.90;;;;;;5032646;28;20390;-66
2024/01/21 08:09:31;;;;;;;9.02;4.78;;;-10.70;99.90;;;;;;5034308;28;20040;-66
2024/01/21 08:11:57;;;;;;;8.13;4.65;;;-10.60;99.90;;;;;;5034295;28;20025;-66
2024/01/21 08:14:23;;;;;;;16.83;5.32;;;-10.60;99.90;;;;;;5034003;28;20033;-67
2024/01/21 08:16:48;;;;;;;11.57;5.05;;;-10.50;99.90;;;;;;5034155;28;20478;-67
2024/01/21 08:19:15;;;;;;;12.57;4.85;;;-10.50;99.90;;;;;;5033945;28;20021;-66
2024/01/21 08:21:40;;;;;;;12.25;5.70;;;-10.50;99.90;;;;;;5032921;28;20025;-66
2024/01/21 08:24:06;;;;;;;11.23;5.28;;;-10.50;99.90;;;;;;5033525;28;20030;-66
2024/01/21 08:26:32;;;;;;;9.90;5.32;;;-10.50;99.90;;;;;;5032795;28;20024;-66
2024/01/21 08:28:58;;;;;;;10.55;4.82;;;-10.50;99.90;;;;;;5033915;28;20359;-66
2024/01/21 08:31:23;;;;;;;11.90;4.75;;;-10.40;99.90;;;;;;5032670;28;20087;-66
2024/01/21 08:33:49;;;;;;;11.95;5.55;;;-10.30;99.90;;;;;;5032181;28;20025;-66
2024/01/21 08:36:15;;;;;;;15.95;5.82;;;-10.30;99.90;;;;;;5033690;28;20034;-66
2024/01/21 08:38:41;;;;;;;11.20;6.28;;;-10.30;99.90;;;;;;5033279;28;20105;-66
2024/01/21 08:41:06;;;;;;;13.85;6.10;;;-10.20;99.90;;;;;;5033415;28;20478;-66
2024/01/21 08:43:32;;;;;;;16.00;6.57;;;-10.20;99.90;;;;;;5034226;28;20104;-66
2024/01/21 08:45:58;;;;;;;24.60;8.13;;;-10.10;99.90;;;;;;5032575;28;20531;-66
2024/01/21 08:48:24;;;;;;;16.92;6.90;;;-10.10;99.90;;;;;;5032384;28;20033;-66
2024/01/21 08:50:49;;;;;;;14.15;5.68;;;-10.00;99.90;;;;;;5032515;28;20033;-66
2024/01/21 08:53:15;;;;;;;8.30;4.07;;;-10.00;99.90;;;;;;5033655;28;20474;-66
2024/01/21 08:55:41;;;;;;;10.20;3.63;;;-9.90;99.90;;;;;;5033344;28;20029;-66
2024/01/21 08:58:06;;;;;;;9.27;4.30;;;-9.80;99.90;;;;;;5033145;28;20027;-66
2024/01/21 09:00:32;;;;;;;13.07;4.35;;;-9.70;99.90;;;;;;5031847;28;20517;-66
2024/01/21 09:02:58;;;;;;;16.30;5.32;;;-9.70;99.90;;;;;;5033638;28;20026;-66
2024/01/21 09:05:24;;;;;;;13.30;5.43;;;-9.60;99.90;;;;;;5033270;28;20099;-66
2024/01/21 09:07:49;;;;;;;13.82;5.55;;;-9.60;99.90;;;;;;5033681;28;20061;-66
2024/01/21 09:10:15;;;;;;;9.55;4.85;;;-9.50;99.90;;;;;;5033464;28;20603;-66
2024/01/21 09:12:41;;;;;;;13.88;6.55;;;-9.40;99.90;;;;;;5032321;28;20366;-66
2024/01/21 09:15:07;;;;;;;10.60;5.20;;;-9.30;99.90;;;;;;5033064;28;20030;-66
2024/01/21 09:17:33;;;;;;;11.93;5.32;;;-9.20;99.90;;;;;;5032083;28;20543;-66
2024/01/21 09:19:59;;;;;;;9.77;5.53;;;-9.20;99.90;;;;;;5033289;28;20537;-66
2024/01/21 09:22:25;;;;;;;15.23;5.22;;;-9.00;99.90;;;;;;5033237;28;20024;-66
2024/01/21 09:24:51;;;;;;;10.10;4.68;;;-8.90;99.90;;;;;;5033481;28;20025;-66
2024/01/21 09:27:16;;;;;;;10.88;5.20;;;-8.80;99.90;;;;;;5032009;28;20025;-66
2024/01/21 09:29:43;;;;;;;11.20;5.35;;;-8.70;99.90;;;;;;5033156;28;20037;-66
2024/01/21 09:32:11;;;;;;;11.60;5.05;;;-8.60;99.90;;;;;;5033416;28;20132;-66
2024/01/21 09:34:39;;;;;;;12.85;5.47;;;-8.50;99.90;;;;;;5033300;28;20049;-66
2024/01/21 09:37:06;;;;;;;13.18;5.15;;;-8.30;99.90;;;;;;5033182;28;20025;-66
2024/01/21 09:39:31;;;;;;;15.32;5.47;;;-8.20;99.90;;;;;;5033139;28;20505;-66
2024/01/21 09:41:58;;;;;;;12.38;5.60;;;-8.10;99.90;;;;;;5048393;28;20026;-66
2024/01/21 09:44:29;;;;;;;11.63;5.10;;;-8.00;99.90;;;;;;5033958;28;20083;-67
2024/01/21 09:46:57;;;;;;;10.93;5.00;;;-7.90;99.90;;;;;;5036534;28;20095;-66
2024/01/21 09:49:24;;;;;;;12.70;5.38;;;-7.80;99.90;;;;;;5036759;28;20521;-66
2024/01/21 09:51:51;;;;;;;15.10;5.93;;;-7.70;99.90;;;;;;5035564;28;20038;-66
2024/01/21 09:54:17;;;;;;;14.18;4.97;;;-7.60;99.90;;;;;;5036858;28;20489;-67
2024/01/21 09:56:43;;;;;;;11.68;4.47;;;-7.50;99.90;;;;;;5036701;28;20401;-66
2024/01/21 09:59:10;;;;;;;14.10;5.38;;;-7.40;99.90;;;;;;5036581;28;20092;-68
2024/01/21 10:01:40;;;;;;;14.15;5.35;;;-7.20;99.90;;;;;;5035261;28;20040;-67
2024/01/21 10:04:10;;;;;;;13.52;4.53;;;-7.10;99.90;;;;;;5036856;28;20385;-67
2024/01/21 10:06:36;;;;;;;12.27;4.80;;;-7.00;99.90;;;;;;5036569;28;20083;-67
2024/01/21 10:09:30;;;;;;;9.73;4.03;;;-6.90;99.90;;;;;;5036731;28;20025;-67
2024/01/21 10:11:57;;;;;;;8.07;3.88;;;-6.70;99.90;;;;;;5031434;28;20034;-67
2024/01/21 10:14:31;;;;;;;13.50;4.78;;;-6.60;99.90;;;;;;5036321;28;20021;-67
2024/01/21 10:16:59;;;;;;;11.98;4.85;;;-6.50;99.90;;;;;;5036445;28;20029;-67
2024/01/21 10:19:26;;;;;;;11.25;4.90;;;-6.30;99.90;;;;;;5036497;28;20424;-67
2024/01/21 10:22:13;;;;;;;7.97;4.10;;;-6.20;99.90;;;;;;5036336;28;20013;-67
2024/01/21 10:24:43;;;;;;;8.18;3.90;;;-6.00;99.90;;;;;;5036704;28;20052;-67
2024/01/21 10:27:09;;;;;;;7.63;2.97;;;-5.90;99.90;;;;;;5036294;28;20080;-67
2024/01/21 10:29:38;;;;;;;6.63;3.13;;;-5.70;99.90;;;;;;5036108;28;20029;-68
2024/01/21 10:32:04;;;;;;;5.32;2.75;;;-5.70;99.90;;;;;;5028082;28;20103;-67
2024/01/21 10:34:30;;;;;;;7.97;3.15;;;-5.60;99.90;;;;;;5035930;28;20080;-67
2024/01/21 10:37:02;;;;;;;7.00;3.13;;;-5.50;99.90;;;;;;5034871;28;20026;-67
2024/01/21 10:39:32;;;;;;;6.63;2.85;;;-5.40;99.90;;;;;;5036156;28;20021;-67
2024/01/21 10:41:59;;;;;;;9.15;4.07;;;-5.30;99.90;;;;;;5036210;28;20021;-67
2024/01/21 10:44:26;;;;;;;8.85;3.35;;;-5.20;99.90;;;;;;5035987;28;20128;-67
2024/01/21 10:46:54;;;;;;;6.30;2.95;;;-5.10;99.90;;;;;;5036127;28;20432;-67
2024/01/21 10:49:20;;;;;;;8.73;3.42;;;-5.00;99.90;;;;;;5035493;28;20014;-67
2024/01/21 10:51:47;;;;;;;7.85;3.58;;;-4.90;99.90;;;;;;5035358;28;20017;-67
2024/01/21 10:54:13;;;;;;;9.13;4.47;;;-4.80;99.90;;;;;;5034389;28;20038;-67
2024/01/21 10:56:39;;;;;;;11.98;4.38;;;-4.60;99.90;;;;;;5034985;28;20014;-67
2024/01/21 10:59:06;;;;;;;11.32;3.90;;;-4.60;99.90;;;;;;5036319;28;20017;-67
2024/01/21 11:01:33;;;;;;;10.40;4.00;;;-4.50;99.90;;;;;;5035536;28;20366;-68
2024/01/21 11:04:07;;;;;;;11.10;4.18;;;-4.40;99.90;;;;;;5018749;28;20169;-67
2024/01/21 11:06:34;;;;;;;12.13;4.10;;;-4.30;99.90;;;;;;5034068;28;20497;-67
2024/01/21 11:09:05;;;;;;;11.60;3.83;;;-4.30;99.90;;;;;;5035507;28;20028;-68
2024/01/21 11:11:30;;;;;;;11.18;3.80;;;-4.20;99.90;;;;;;5034121;28;20029;-67
2024/01/21 11:13:56;;;;;;;8.75;3.60;;;-4.20;99.90;;;;;;5034058;28;20551;-67
2024/01/21 11:16:25;;;;;;;12.60;5.82;;;-4.10;99.90;;;;;;5035307;28;20029;-67
2024/01/21 11:18:57;;;;;;;11.65;4.30;;;-4.10;99.90;;;;;;5035433;28;20018;-67
2024/01/21 11:21:27;;;;;;;10.23;4.13;;;-4.10;99.90;;;;;;5035342;28;20044;-67
2024/01/21 11:24:06;;;;;;;6.93;3.53;;;-4.00;99.90;;;;;;5035199;28;20137;-67
2024/01/21 11:26:35;;;;;;;10.00;4.20;;;-3.90;99.90;;;;;;5033415;28;20030;-67
2024/01/21 11:29:20;;;;;;;9.65;4.50;;;-3.80;99.90;;;;;;5035087;28;20432;-68
2024/01/21 11:31:52;;;;;;;7.25;3.45;;;-3.70;99.90;;;;;;5035131;28;20029;-67
2024/01/21 11:34:18;;;;;;;10.55;3.60;;;-3.60;99.90;;;;;;5033692;28;20033;-67
2024/01/21 11:36:44;;;;;;;24.33;6.72;;;-3.60;99.90;;;;;;5034915;28;20469;-67
2024/01/21 11:39:10;;;;;;;20.35;7.13;;;-3.60;99.90;;;;;;5035097;28;20083;-67
2024/01/21 11:41:43;;;;;;;16.00;4.63;;;-3.50;99.90;;;;;;5033706;28;20030;-67
2024/01/21 11:44:10;;;;;;;17.20;4.93;;;-3.50;99.90;;;;;;5015042;28;20025;-67
2024/01/21 11:46:37;;;;;;;22.38;4.38;;;-3.40;99.90;;;;;;5015867;28;20029;-67
2024/01/21 11:49:03;;;;;;;17.27;4.85;;;-3.40;99.90;;;;;;5013915;28;20030;-67
2024/01/21 11:51:29;;;;;;;14.10;5.00;;;-3.40;99.90;;;;;;5015624;28;20026;-67
2024/01/21 11:53:55;;;;;;;12.90;6.45;;;-3.30;99.90;;;;;;5033951;28;20033;-67
2024/01/21 11:56:21;;;;;;;10.35;4.40;;;-3.30;99.90;;;;;;5000467;28;20033;-67
2024/01/21 11:58:46;;;;;;;13.73;5.82;;;-3.20;99.90;;;;;;5034211;28;20400;-67
2024/01/21 12:01:12;;;;;;;10.65;5.15;;;-3.20;99.90;;;;;;5033213;28;20025;-67
2024/01/21 12:03:38;;;;;;;11.02;3.78;;;-3.10;99.90;;;;;;5033576;28;20029;-68
2024/01/21 12:06:04;;;;;;;7.93;3.90;;;-3.00;99.90;;;;;;5034472;28;20052;-67
2024/01/21 12:08:31;;;;;;;22.27;8.40;;;-2.90;99.90;;;;;;5033651;28;20108;-67
2024/01/21 12:10:56;;;;;;;11.32;4.20;;;-2.80;99.90;;;;;;5034353;28;20083;-67
2024/01/21 12:13:22;;;;;;;19.30;7.68;;;-2.70;99.90;;;;;;5033283;28;20029;-67
2024/01/21 12:15:51;;;;;;;26.42;10.30;;;-2.60;99.90;;;;;;5032757;28;20371;-67
2024/01/21 12:18:17;;;;;;;19.02;7.82;;;-2.50;99.90;;;;;;5034690;28;20021;-67
2024/01/21 12:20:43;;;;;;;10.93;4.55;;;-2.40;99.90;;;;;;5016668;28;20370;-67
2024/01/21 12:23:21;;;;;;;13.45;5.97;;;-2.30;99.90;;;;;;5041864;28;20524;-67
2024/01/21 12:25:48;;;;;;;14.10;5.75;;;-2.20;99.90;;;;;;5034221;28;20104;-67
2024/01/21 12:28:14;;;;;;;6.97;3.15;;;-2.10;99.90;;;;;;5034037;28;20132;-67
2024/01/21 12:30:39;;;;;;;4.75;2.42;;;-2.10;99.90;;;;;;5032641;28;20112;-67
2024/01/21 12:33:05;;;;;;;6.28;2.45;;;-1.90;99.90;;;;;;5033665;28;20037;-67
2024/01/21 12:35:31;;;;;;;8.05;2.28;;;-1.90;99.90;;;;;;5033777;28;20037;-67